createdAt,value
2022-10-19T00:00:33.673Z,3.88
2022-10-19T00:03:23.131Z,4.07
2022-10-19T00:05:51.400Z,3.60
2022-10-19T00:08:18.137Z,3.47
2022-10-19T00:10:45.105Z,2.78
2022-10-19T00:13:11.872Z,4.28
2022-10-19T00:15:40.324Z,3.10
2022-10-19T00:18:08.061Z,3.78
2022-10-19T00:20:35.892Z,4.22
2022-10-19T00:23:02.857Z,3.13
2022-10-19T00:25:29.825Z,3.15
2022-10-19T00:27:56.607Z,3.55
2022-10-19T00:30:23.579Z,3.83
2022-10-19T00:32:50.329Z,4.35
2022-10-19T00:35:17.436Z,4.03
2022-10-19T00:37:44.202Z,4.35
2022-10-19T00:40:11.508Z,4.15
2022-10-19T00:42:38.280Z,4.63
2022-10-19T00:45:09.677Z,3.65
2022-10-19T00:47:36.436Z,3.65
2022-10-19T00:50:03.781Z,2.75
2022-10-19T00:52:30.597Z,3.63
2022-10-19T00:54:57.793Z,3.70
2022-10-19T00:57:26.171Z,3.63
2022-10-19T00:59:53.270Z,3.95
2022-10-19T01:02:20.105Z,3.50
2022-10-19T01:04:49.267Z,3.92
2022-10-19T01:07:16.039Z,3.53
2022-10-19T01:09:43.095Z,3.30
2022-10-19T01:12:23.585Z,3.35
2022-10-19T01:14:56.757Z,4.55
2022-10-19T01:17:45.612Z,3.40
2022-10-19T01:20:43.800Z,3.42
2022-10-19T01:23:22.531Z,4.10
2022-10-19T01:26:14.411Z,5.72
2022-10-19T01:28:59.834Z,3.47
2022-10-19T01:34:17.754Z,5.20
2022-10-19T01:36:56.501Z,4.03
2022-10-19T01:39:32.938Z,3.80
2022-10-19T01:42:13.662Z,3.97
2022-10-19T01:44:54.917Z,3.55
2022-10-19T01:47:27.405Z,3.80
2022-10-19T01:49:57.389Z,3.42
2022-10-19T01:52:24.510Z,3.20
2022-10-19T01:54:55.430Z,3.53
2022-10-19T01:57:25.747Z,4.47
2022-10-19T01:59:52.533Z,3.00
2022-10-19T02:02:20.150Z,4.05
2022-10-19T02:04:47.238Z,4.35
2022-10-19T02:07:14.225Z,3.00
2022-10-19T02:09:40.969Z,3.38
2022-10-19T02:12:09.461Z,3.88
2022-10-19T02:14:40.290Z,2.85
2022-10-19T02:17:13.893Z,3.60
2022-10-19T02:19:40.752Z,3.03
2022-10-19T02:22:08.092Z,3.10
2022-10-19T02:24:34.893Z,2.83
2022-10-19T02:27:04.916Z,3.10
2022-10-19T02:29:34.622Z,3.08
2022-10-19T02:32:01.652Z,2.72
2022-10-19T02:34:28.445Z,3.42
2022-10-19T02:36:55.491Z,2.97
2022-10-19T02:39:22.294Z,2.78
2022-10-19T02:42:36.181Z,2.50
2022-10-19T02:45:15.808Z,2.90
2022-10-19T02:47:49.469Z,3.42
2022-10-19T02:50:16.212Z,4.80
2022-10-19T02:52:43.219Z,3.20
2022-10-19T02:55:10.037Z,4.43
2022-10-19T02:57:37.363Z,3.42
2022-10-19T03:00:06.517Z,2.85
2022-10-19T03:02:33.556Z,3.88
2022-10-19T03:05:00.478Z,2.88
2022-10-19T03:07:27.493Z,4.07
2022-10-19T03:09:54.285Z,3.30
2022-10-19T03:12:21.332Z,4.53
2022-10-19T03:14:48.099Z,3.83
2022-10-19T03:17:15.088Z,3.55
2022-10-19T03:19:41.851Z,3.05
2022-10-19T03:22:08.837Z,3.00
2022-10-19T03:24:35.668Z,3.53
2022-10-19T03:27:02.681Z,2.67
2022-10-19T03:29:29.451Z,3.63
2022-10-19T03:31:56.619Z,3.28
2022-10-19T03:34:23.418Z,3.72
2022-10-19T03:36:50.498Z,3.85
2022-10-19T03:39:17.393Z,3.35
2022-10-19T03:41:44.555Z,2.72
2022-10-19T03:44:11.390Z,3.30
2022-10-19T03:46:38.520Z,3.45
2022-10-19T03:49:05.360Z,2.80
2022-10-19T03:51:32.771Z,2.72
2022-10-19T03:54:01.393Z,2.85
2022-10-19T03:56:29.135Z,3.80
2022-10-19T03:58:56.807Z,3.50
2022-10-19T04:01:28.142Z,4.05
2022-10-19T04:03:55.929Z,4.82
2022-10-19T04:06:30.916Z,3.13
2022-10-19T04:08:57.771Z,2.92
2022-10-19T04:11:26.138Z,3.65
2022-10-19T04:13:53.366Z,3.45
2022-10-19T04:16:20.712Z,3.25
2022-10-19T04:18:47.787Z,3.97
2022-10-19T04:21:20.999Z,3.60
2022-10-19T04:23:47.883Z,3.60
2022-10-19T04:26:14.951Z,3.80
2022-10-19T04:28:41.790Z,3.63
2022-10-19T04:31:08.867Z,5.55
2022-10-19T04:33:35.697Z,4.15
2022-10-19T04:36:04.657Z,3.95
2022-10-19T04:38:31.551Z,4.18
2022-10-19T04:41:03.373Z,3.63
2022-10-19T04:43:30.246Z,6.93
2022-10-19T04:45:57.230Z,5.72
2022-10-19T04:48:23.993Z,3.22
2022-10-19T04:50:54.609Z,3.65
2022-10-19T04:53:21.574Z,3.85
2022-10-19T04:55:48.542Z,5.25
2022-10-19T04:58:15.290Z,5.05
2022-10-19T05:00:42.353Z,3.85
2022-10-19T05:03:09.334Z,4.53
2022-10-19T05:05:36.374Z,6.07
2022-10-19T05:08:03.202Z,6.63
2022-10-19T05:10:30.238Z,3.72
2022-10-19T05:12:57.005Z,4.00
2022-10-19T05:15:24.017Z,3.70
2022-10-19T05:17:50.761Z,5.25
2022-10-19T05:20:18.097Z,3.78
2022-10-19T05:22:44.869Z,4.05
2022-10-19T05:25:11.897Z,4.55
2022-10-19T05:27:38.701Z,4.22
2022-10-19T05:30:06.770Z,3.00
2022-10-19T05:32:33.639Z,3.75
2022-10-19T05:35:00.637Z,4.45
2022-10-19T05:37:27.425Z,3.15
2022-10-19T05:39:54.815Z,4.18
2022-10-19T05:42:21.558Z,4.90
2022-10-19T05:44:48.597Z,2.80
2022-10-19T05:47:15.413Z,3.10
2022-10-19T05:49:42.458Z,3.38
2022-10-19T05:52:09.222Z,3.38
2022-10-19T05:54:37.029Z,5.90
2022-10-19T05:57:04.049Z,3.30
2022-10-19T05:59:31.211Z,3.25
2022-10-19T06:01:58.008Z,3.40
2022-10-19T06:04:25.393Z,4.38
2022-10-19T06:06:52.229Z,6.20
2022-10-19T06:09:19.422Z,3.10
2022-10-19T06:11:46.256Z,4.03
2022-10-19T06:14:14.733Z,3.75
2022-10-19T06:16:41.624Z,3.97
2022-10-19T06:19:08.725Z,4.80
2022-10-19T06:21:35.565Z,3.88
2022-10-19T06:24:04.423Z,3.90
2022-10-19T06:26:32.373Z,5.35
2022-10-19T06:29:00.405Z,4.47
2022-10-19T06:31:31.320Z,5.10
2022-10-19T06:33:58.655Z,3.60
2022-10-19T06:36:28.292Z,3.80
2022-10-19T06:38:56.596Z,4.13
2022-10-19T06:41:23.540Z,5.88
2022-10-19T06:43:54.332Z,6.05
2022-10-19T06:46:23.304Z,5.53
2022-10-19T06:48:54.796Z,4.90
2022-10-19T06:51:21.827Z,4.43
2022-10-19T06:53:51.682Z,7.43
2022-10-19T06:56:24.509Z,7.30
2022-10-19T06:58:51.648Z,6.65
2022-10-19T07:01:18.482Z,7.03
2022-10-19T07:03:45.623Z,6.57
2022-10-19T07:06:12.868Z,6.30
2022-10-19T07:08:40.576Z,7.80
2022-10-19T07:11:09.445Z,8.73
2022-10-19T07:13:36.543Z,9.60
2022-10-19T07:16:08.284Z,8.45
2022-10-19T07:18:35.748Z,8.73
2022-10-19T07:21:03.912Z,7.85
2022-10-19T07:23:32.071Z,10.95
2022-10-19T07:26:03.784Z,7.78
2022-10-19T07:28:31.006Z,9.25
2022-10-19T07:30:57.835Z,7.82
2022-10-19T07:33:24.862Z,9.15
2022-10-19T07:35:58.970Z,10.18
2022-10-19T07:38:25.920Z,11.87
2022-10-19T07:40:55.227Z,8.90
2022-10-19T07:43:22.240Z,7.32
2022-10-19T07:45:48.979Z,7.88
2022-10-19T07:48:15.990Z,9.50
2022-10-19T07:50:47.871Z,8.10
2022-10-19T07:53:14.887Z,8.30
2022-10-19T07:55:41.691Z,8.57
2022-10-19T07:58:08.892Z,10.38
2022-10-19T08:00:35.714Z,6.00
2022-10-19T08:05:49.741Z,6.80
2022-10-19T08:08:16.757Z,13.45
2022-10-19T08:10:43.609Z,8.80
2022-10-19T08:13:10.631Z,6.07
2022-10-19T08:15:37.408Z,5.50
2022-10-19T08:18:04.472Z,7.05
2022-10-19T08:20:31.225Z,6.93
2022-10-19T08:22:59.103Z,6.43
2022-10-19T08:25:26.103Z,6.25
2022-10-19T08:27:53.091Z,6.00
2022-10-19T08:30:19.926Z,5.28
2022-10-19T08:32:46.998Z,5.35
2022-10-19T08:35:13.823Z,4.20
2022-10-19T08:37:45.318Z,5.55
2022-10-19T08:40:24.360Z,4.55
2022-10-19T08:43:04.631Z,6.20
2022-10-19T08:45:38.931Z,4.35
2022-10-19T08:48:24.231Z,3.40
2022-10-19T08:50:51.223Z,3.63
2022-10-19T08:53:32.422Z,3.30
2022-10-19T08:56:49.215Z,5.35
2022-10-19T08:59:24.306Z,3.72
2022-10-19T09:01:55.640Z,9.68
2022-10-19T09:04:24.306Z,3.15
2022-10-19T09:07:00.370Z,2.80
2022-10-19T09:09:28.754Z,3.45
2022-10-19T09:11:56.097Z,3.53
2022-10-19T09:14:29.848Z,4.07
2022-10-19T09:16:59.226Z,3.15
2022-10-19T09:19:29.987Z,3.28
2022-10-19T09:21:57.329Z,6.65
2022-10-19T09:24:43.498Z,2.90
2022-10-19T09:27:24.754Z,3.67
2022-10-19T09:29:58.911Z,2.65
2022-10-19T09:32:28.673Z,3.95
2022-10-19T09:34:57.877Z,3.22
2022-10-19T09:37:26.550Z,3.90
2022-10-19T09:39:55.568Z,2.45
2022-10-19T09:42:30.598Z,2.50
2022-10-19T09:44:59.491Z,1.25
2022-10-19T09:47:29.478Z,3.97
2022-10-19T09:50:17.609Z,2.88
2022-10-19T09:52:51.761Z,3.58
2022-10-19T09:55:36.029Z,4.13
2022-10-19T09:58:19.460Z,3.92
2022-10-19T10:00:55.941Z,4.10
2022-10-19T10:03:22.808Z,3.40
2022-10-19T10:05:49.878Z,4.07
2022-10-19T10:08:27.439Z,3.20
2022-10-19T10:11:10.780Z,3.28
2022-10-19T10:13:40.019Z,2.80
2022-10-19T10:16:09.016Z,3.13
2022-10-19T10:18:50.804Z,3.72
2022-10-19T10:21:26.311Z,3.58
2022-10-19T10:24:01.180Z,2.97
2022-10-19T10:26:28.220Z,2.83
2022-10-19T10:28:57.863Z,6.15
2022-10-19T10:31:28.228Z,8.18
2022-10-19T10:34:10.880Z,6.35
2022-10-19T10:36:51.609Z,6.22
2022-10-19T10:39:18.466Z,4.60
2022-10-19T10:41:45.485Z,5.78
2022-10-19T10:44:20.989Z,5.78
2022-10-19T10:46:56.110Z,6.55
2022-10-19T10:49:24.833Z,4.55
2022-10-19T10:51:57.029Z,8.07
2022-10-19T10:54:26.329Z,7.07
2022-10-19T10:57:14.197Z,5.28
2022-10-19T11:00:12.141Z,4.15
2022-10-19T11:02:42.289Z,6.68
2022-10-19T11:05:25.389Z,6.78
2022-10-19T11:07:54.914Z,7.18
2022-10-19T11:10:33.544Z,6.07
2022-10-19T11:13:15.869Z,5.43
2022-10-19T11:15:52.628Z,7.88
2022-10-19T11:18:26.629Z,6.22
2022-10-19T11:20:59.311Z,7.55
2022-10-19T11:23:55.567Z,6.20
2022-10-19T11:26:25.134Z,5.57
2022-10-19T11:29:03.992Z,4.75
2022-10-19T11:31:39.458Z,6.82
2022-10-19T11:34:20.158Z,3.67
2022-10-19T11:36:51.582Z,4.78
2022-10-19T11:39:18.595Z,5.13
2022-10-19T11:41:51.992Z,2.83
2022-10-19T11:44:31.899Z,3.15
2022-10-19T11:47:13.751Z,3.70
2022-10-19T11:49:44.916Z,6.28
2022-10-19T11:52:21.022Z,3.60
2022-10-19T11:55:19.991Z,4.90
2022-10-19T11:58:12.241Z,3.83
2022-10-19T12:01:00.384Z,6.40
2022-10-19T12:03:53.319Z,5.22
2022-10-19T12:06:41.927Z,3.65
2022-10-19T12:09:30.859Z,4.97
2022-10-19T12:12:06.690Z,6.03
2022-10-19T12:14:36.254Z,4.90
2022-10-19T12:17:09.670Z,2.78
2022-10-19T12:19:42.894Z,4.13
2022-10-19T12:22:15.498Z,5.38
2022-10-19T12:24:42.382Z,4.05
2022-10-19T12:27:16.569Z,4.80
2022-10-19T12:29:45.109Z,5.80
2022-10-19T12:32:14.245Z,4.50
2022-10-19T12:34:54.522Z,3.47
2022-10-19T12:37:42.126Z,3.47
2022-10-19T12:40:32.374Z,7.13
2022-10-19T12:43:20.382Z,7.18
2022-10-19T12:45:52.159Z,6.63
2022-10-19T12:48:20.391Z,6.78
2022-10-19T12:50:50.300Z,4.45
2022-10-19T12:53:38.309Z,5.22
2022-10-19T12:56:22.731Z,4.55
2022-10-19T12:58:57.470Z,6.60
2022-10-19T13:01:48.393Z,5.07
2022-10-19T13:04:20.269Z,4.35
2022-10-19T13:07:10.925Z,4.97
2022-10-19T13:09:42.081Z,4.40
2022-10-19T13:12:19.271Z,5.75
2022-10-19T13:14:51.205Z,3.85
2022-10-19T13:17:46.553Z,4.53
2022-10-19T13:20:13.695Z,3.30
2022-10-19T13:22:41.017Z,4.22
2022-10-19T13:25:17.340Z,4.05
2022-10-19T13:27:44.837Z,5.05
2022-10-19T13:30:37.176Z,5.13
2022-10-19T13:33:28.458Z,2.80
2022-10-19T13:35:58.613Z,4.50
2022-10-19T13:38:29.136Z,3.20
2022-10-19T13:40:56.233Z,3.25
2022-10-19T13:43:38.309Z,4.13
2022-10-19T13:46:24.153Z,4.32
2022-10-19T13:49:12.532Z,3.00
2022-10-19T13:51:51.612Z,5.10
2022-10-19T13:54:27.461Z,5.05
2022-10-19T13:57:11.185Z,6.00
2022-10-19T14:00:04.991Z,3.90
2022-10-19T14:02:45.942Z,2.58
2022-10-19T14:05:47.513Z,3.50
2022-10-19T14:08:32.869Z,5.03
2022-10-19T14:11:02.246Z,3.88
2022-10-19T14:13:29.421Z,4.50
2022-10-19T14:15:57.595Z,2.78
2022-10-19T14:18:27.131Z,4.07
2022-10-19T14:21:04.825Z,6.07
2022-10-19T14:23:33.483Z,6.00
2022-10-19T14:26:03.395Z,6.25
2022-10-19T14:28:30.682Z,4.78
2022-10-19T14:31:01.862Z,4.45
2022-10-19T14:33:29.983Z,5.22
2022-10-19T14:35:56.796Z,5.28
2022-10-19T14:38:38.587Z,8.88
2022-10-19T14:41:06.275Z,5.90
2022-10-19T14:43:33.922Z,8.50
2022-10-19T14:46:06.774Z,6.95
2022-10-19T14:48:41.183Z,6.85
2022-10-19T14:51:16.129Z,7.32
2022-10-19T14:56:14.590Z,4.75
2022-10-19T14:58:44.997Z,6.00
2022-10-19T15:01:12.228Z,5.57
2022-10-19T15:03:43.532Z,6.63
2022-10-19T15:06:18.002Z,4.90
2022-10-19T15:09:24.769Z,6.07
2022-10-19T15:12:09.005Z,6.30
2022-10-19T15:14:37.143Z,7.22
2022-10-19T15:17:05.821Z,8.05
2022-10-19T15:19:34.026Z,8.70
2022-10-19T15:22:13.508Z,6.22
2022-10-19T15:25:00.721Z,6.28
2022-10-19T15:27:40.279Z,6.15
2022-10-19T15:30:21.127Z,5.03
2022-10-19T15:33:14.409Z,5.50
2022-10-19T15:35:44.126Z,6.55
2022-10-19T15:38:14.589Z,6.95
2022-10-19T15:40:42.751Z,7.38
2022-10-19T15:43:34.274Z,6.88
2022-10-19T15:46:01.525Z,6.88
2022-10-19T15:48:40.382Z,7.45
2022-10-19T15:51:25.865Z,11.50
2022-10-19T15:53:59.701Z,6.63
2022-10-19T15:56:28.106Z,9.05
2022-10-19T15:58:56.927Z,6.93
2022-10-19T16:01:26.226Z,6.80
2022-10-19T16:03:53.097Z,7.97
2022-10-19T16:06:21.257Z,7.80
2022-10-19T16:08:48.129Z,8.02
2022-10-19T16:11:16.480Z,8.65
2022-10-19T16:13:43.320Z,9.05
2022-10-19T16:16:12.876Z,9.10
2022-10-19T16:18:39.713Z,8.23
2022-10-19T16:21:06.785Z,6.85
2022-10-19T16:23:39.318Z,9.10
2022-10-19T16:26:09.036Z,10.00
2022-10-19T16:28:35.808Z,9.20
2022-10-19T16:31:02.860Z,8.27
2022-10-19T16:33:29.670Z,9.35
2022-10-19T16:35:56.716Z,13.45
2022-10-19T16:38:23.514Z,11.18
2022-10-19T16:40:50.514Z,10.98
2022-10-19T16:43:17.311Z,14.05
2022-10-19T16:45:44.414Z,19.20
2022-10-19T16:48:14.292Z,13.55
2022-10-19T16:50:41.299Z,19.77
2022-10-19T16:53:10.422Z,16.02
2022-10-19T16:55:37.957Z,16.05
2022-10-19T16:58:04.754Z,16.20
2022-10-19T17:00:31.882Z,17.40
2022-10-19T17:02:58.687Z,18.13
2022-10-19T17:05:25.760Z,14.15
2022-10-19T17:07:52.732Z,19.95
2022-10-19T17:10:19.813Z,16.85
2022-10-19T17:12:46.638Z,11.77
2022-10-19T17:18:00.536Z,14.13
2022-10-19T17:20:27.572Z,17.10
2022-10-19T17:22:54.351Z,24.92
2022-10-19T17:25:21.394Z,29.25
2022-10-19T17:27:51.663Z,17.52
2022-10-19T17:30:18.833Z,23.33
2022-10-19T17:32:45.543Z,24.00
2022-10-19T17:35:12.555Z,26.55
2022-10-19T17:37:39.340Z,16.45
2022-10-19T17:40:07.106Z,14.88
2022-10-19T17:42:36.642Z,16.13
2022-10-19T17:45:03.892Z,17.23
2022-10-19T17:47:30.744Z,26.90
2022-10-19T17:49:57.775Z,11.73
2022-10-19T17:52:24.620Z,12.68
2022-10-19T17:55:11.140Z,12.10
2022-10-19T17:57:38.616Z,13.65
2022-10-19T18:00:07.184Z,13.30
2022-10-19T18:02:35.508Z,11.13
2022-10-19T18:05:02.651Z,11.88
2022-10-19T18:07:29.455Z,11.20
2022-10-19T18:09:56.544Z,10.85
2022-10-19T18:12:23.333Z,10.82
2022-10-19T18:14:50.454Z,12.38
2022-10-19T18:17:17.238Z,11.10
2022-10-19T18:19:44.494Z,13.00
2022-10-19T18:22:11.326Z,10.57
2022-10-19T18:24:38.466Z,12.10
2022-10-19T18:27:05.297Z,12.25
2022-10-19T18:29:32.349Z,15.40
2022-10-19T18:31:59.200Z,10.15
2022-10-19T18:34:26.429Z,13.23
2022-10-19T18:36:54.168Z,11.82
2022-10-19T18:39:21.464Z,10.43
2022-10-19T18:41:54.817Z,11.65
2022-10-19T18:44:26.357Z,12.95
2022-10-19T18:46:55.185Z,10.68
2022-10-19T18:49:22.307Z,10.30
2022-10-19T18:51:54.026Z,10.57
2022-10-19T18:54:22.868Z,12.40
2022-10-19T18:56:49.647Z,12.45
2022-10-19T18:59:16.993Z,12.55
2022-10-19T19:01:43.961Z,9.73
2022-10-19T19:04:11.071Z,13.50
2022-10-19T19:06:38.213Z,11.18
2022-10-19T19:09:09.658Z,12.70
2022-10-19T19:11:38.285Z,10.65
2022-10-19T19:14:07.639Z,12.07
2022-10-19T19:16:35.972Z,11.00
2022-10-19T19:19:03.212Z,11.82
2022-10-19T19:21:30.790Z,10.98
2022-10-19T19:23:59.738Z,10.68
2022-10-19T19:26:27.964Z,10.52
2022-10-19T19:28:55.152Z,14.55
2022-10-19T19:31:22.053Z,10.93
2022-10-19T19:33:49.134Z,9.35
2022-10-19T19:36:16.558Z,11.18
2022-10-19T19:38:43.813Z,11.00
2022-10-19T19:41:14.425Z,12.20
2022-10-19T19:43:42.467Z,10.23
2022-10-19T19:46:14.679Z,10.30
2022-10-19T19:48:42.432Z,10.23
2022-10-19T19:51:19.717Z,11.43
2022-10-19T19:53:47.189Z,9.65
2022-10-19T19:56:14.373Z,11.52
2022-10-19T19:58:41.593Z,9.93
2022-10-19T20:01:16.554Z,12.95
2022-10-19T20:06:10.598Z,11.07
2022-10-19T20:08:37.891Z,10.57
2022-10-19T20:11:07.044Z,9.98
2022-10-19T20:13:35.364Z,10.52
2022-10-19T20:16:13.120Z,9.02
2022-10-19T20:18:51.010Z,9.43
2022-10-19T20:21:18.310Z,10.45
2022-10-19T20:23:46.413Z,10.98
2022-10-19T20:26:21.074Z,9.95
2022-10-19T20:28:48.208Z,11.00
2022-10-19T20:31:15.134Z,10.45
2022-10-19T20:33:43.048Z,8.82
2022-10-19T20:36:11.988Z,11.98
2022-10-19T20:38:39.412Z,13.52
2022-10-19T20:41:08.257Z,14.63
2022-10-19T20:43:36.044Z,8.52
2022-10-19T20:46:21.021Z,11.48
2022-10-19T20:48:48.144Z,10.80
2022-10-19T20:51:16.319Z,10.05
2022-10-19T20:53:49.258Z,9.48
2022-10-19T20:56:21.745Z,11.55
2022-10-19T20:58:56.049Z,12.73
2022-10-19T21:01:23.388Z,11.00
2022-10-19T21:03:55.089Z,10.93
2022-10-19T21:06:23.216Z,12.93
2022-10-19T21:08:50.528Z,12.40
2022-10-19T21:11:18.178Z,11.07
2022-10-19T21:13:45.429Z,12.02
2022-10-19T21:16:19.472Z,12.48
2022-10-19T21:18:47.491Z,12.43
2022-10-19T21:21:18.629Z,13.98
2022-10-19T21:23:47.518Z,12.70
2022-10-19T21:26:14.460Z,13.00
2022-10-19T21:28:48.321Z,12.95
2022-10-19T21:31:15.287Z,13.55
2022-10-19T21:33:42.363Z,15.07
2022-10-19T21:36:09.272Z,11.75
2022-10-19T21:38:36.358Z,12.50
2022-10-19T21:41:05.329Z,11.93
2022-10-19T21:43:32.380Z,13.32
2022-10-19T21:46:01.888Z,12.40
2022-10-19T21:48:29.573Z,13.15
2022-10-19T21:50:56.392Z,11.13
2022-10-19T21:53:23.695Z,13.88
2022-10-19T21:55:51.271Z,12.65
2022-10-19T21:58:18.278Z,12.73
2022-10-19T22:00:45.115Z,11.82
2022-10-19T22:03:12.113Z,10.82
2022-10-19T22:05:39.092Z,10.27
2022-10-19T22:08:06.161Z,10.45
2022-10-19T22:10:32.964Z,14.27
2022-10-19T22:12:59.922Z,11.50
2022-10-19T22:15:26.717Z,10.90
2022-10-19T22:17:53.721Z,13.55
2022-10-19T22:20:20.468Z,12.02
2022-10-19T22:22:50.263Z,12.65
2022-10-19T22:25:19.541Z,9.98
2022-10-19T22:27:46.639Z,9.07
2022-10-19T22:30:13.452Z,11.50
2022-10-19T22:32:40.496Z,10.05
2022-10-19T22:35:07.491Z,10.57
2022-10-19T22:37:34.679Z,11.43
2022-10-19T22:40:01.587Z,9.82
2022-10-19T22:42:28.590Z,9.93
2022-10-19T22:44:55.381Z,9.68
2022-10-19T22:47:22.212Z,11.48
2022-10-19T22:49:49.364Z,10.13
2022-10-19T22:52:16.721Z,9.32
2022-10-19T22:54:43.752Z,9.23
2022-10-19T22:57:11.833Z,11.07
2022-10-19T22:59:38.863Z,10.75
2022-10-19T23:02:05.665Z,10.00
2022-10-19T23:04:32.700Z,8.88
2022-10-19T23:06:59.501Z,11.43
2022-10-19T23:09:26.531Z,9.90
2022-10-19T23:11:53.287Z,9.77
2022-10-19T23:14:20.326Z,9.18
2022-10-19T23:16:47.356Z,9.35
2022-10-19T23:19:14.366Z,8.38
2022-10-19T23:21:41.126Z,8.93
2022-10-19T23:24:08.122Z,8.73
2022-10-19T23:26:34.941Z,8.35
2022-10-19T23:29:01.975Z,7.70
2022-10-19T23:31:30.329Z,8.05
2022-10-19T23:33:57.370Z,7.88
2022-10-19T23:36:28.537Z,7.65
2022-10-19T23:38:55.984Z,7.55
2022-10-19T23:41:23.085Z,6.25
2022-10-19T23:43:50.221Z,6.18
2022-10-19T23:46:17.252Z,9.15
2022-10-19T23:48:44.256Z,8.73
2022-10-19T23:51:12.892Z,8.10
2022-10-19T23:53:41.467Z,8.90
2022-10-19T23:56:14.109Z,5.60
2022-10-19T23:58:41.244Z,9.68
